sensor_id;sensor_type;location;lat;lon;timestamp;temperature;humidity
19168;DHT22;9716;53.114;18.040;2023-12-20T00:00:30;7.80;99.90
19168;DHT22;9716;53.114;18.040;2023-12-20T00:03:20;7.80;99.90
19168;DHT22;9716;53.114;18.040;2023-12-20T00:05:48;7.80;99.90
19168;DHT22;9716;53.114;18.040;2023-12-20T00:08:17;7.80;99.90
19168;DHT22;9716;53.114;18.040;2023-12-20T00:10:45;7.80;99.90
19168;DHT22;9716;53.114;18.040;2023-12-20T00:13:14;7.80;99.90
19168;DHT22;9716;53.114;18.040;2023-12-20T00:15:42;7.80;99.90
19168;DHT22;9716;53.114;18.040;2023-12-20T00:18:13;7.80;99.90
19168;DHT22;9716;53.114;18.040;2023-12-20T00:20:43;7.80;99.90
19168;DHT22;9716;53.114;18.040;2023-12-20T00:23:11;7.80;99.90
19168;DHT22;9716;53.114;18.040;2023-12-20T00:25:40;7.80;99.90
19168;DHT22;9716;53.114;18.040;2023-12-20T00:28:08;7.80;99.90
19168;DHT22;9716;53.114;18.040;2023-12-20T00:30:36;7.80;99.90
19168;DHT22;9716;53.114;18.040;2023-12-20T00:33:05;7.80;99.90
19168;DHT22;9716;53.114;18.040;2023-12-20T00:35:33;7.80;99.90
19168;DHT22;9716;53.114;18.040;2023-12-20T00:38:03;7.80;99.90
19168;DHT22;9716;53.114;18.040;2023-12-20T00:40:32;7.80;99.90
19168;DHT22;9716;53.114;18.040;2023-12-20T00:43:01;7.80;99.90
19168;DHT22;9716;53.114;18.040;2023-12-20T00:45:29;7.80;99.90
19168;DHT22;9716;53.114;18.040;2023-12-20T00:47:58;7.80;99.90
19168;DHT22;9716;53.114;18.040;2023-12-20T00:50:27;7.80;99.90
19168;DHT22;9716;53.114;18.040;2023-12-20T00:52:57;7.80;99.90
19168;DHT22;9716;53.114;18.040;2023-12-20T00:55:26;7.80;99.90
19168;DHT22;9716;53.114;18.040;2023-12-20T00:57:55;7.80;99.90
19168;DHT22;9716;53.114;18.040;2023-12-20T01:00:23;7.90;99.90
19168;DHT22;9716;53.114;18.040;2023-12-20T01:02:52;7.80;99.90
19168;DHT22;9716;53.114;18.040;2023-12-20T01:05:20;7.80;99.90
19168;DHT22;9716;53.114;18.040;2023-12-20T01:07:50;7.80;99.90
19168;DHT22;9716;53.114;18.040;2023-12-20T01:10:18;7.80;99.90
19168;DHT22;9716;53.114;18.040;2023-12-20T01:12:48;7.80;99.90
19168;DHT22;9716;53.114;18.040;2023-12-20T01:15:17;7.80;99.90
19168;DHT22;9716;53.114;18.040;2023-12-20T01:17:46;7.80;99.90
19168;DHT22;9716;53.114;18.040;2023-12-20T01:20:15;7.80;99.90
19168;DHT22;9716;53.114;18.040;2023-12-20T01:22:44;7.80;99.90
19168;DHT22;9716;53.114;18.040;2023-12-20T01:25:13;7.80;99.90
19168;DHT22;9716;53.114;18.040;2023-12-20T01:27:41;7.80;99.90
19168;DHT22;9716;53.114;18.040;2023-12-20T01:30:12;7.80;99.90
19168;DHT22;9716;53.114;18.040;2023-12-20T01:32:41;7.80;99.90
19168;DHT22;9716;53.114;18.040;2023-12-20T01:35:10;7.80;99.90
19168;DHT22;9716;53.114;18.040;2023-12-20T01:37:42;7.80;99.90
19168;DHT22;9716;53.114;18.040;2023-12-20T01:40:11;7.90;99.90
19168;DHT22;9716;53.114;18.040;2023-12-20T01:42:40;7.80;99.90
19168;DHT22;9716;53.114;18.040;2023-12-20T01:45:09;7.80;99.90
19168;DHT22;9716;53.114;18.040;2023-12-20T01:47:39;7.80;99.90
19168;DHT22;9716;53.114;18.040;2023-12-20T01:50:08;7.80;99.90
19168;DHT22;9716;53.114;18.040;2023-12-20T01:52:37;7.80;99.90
19168;DHT22;9716;53.114;18.040;2023-12-20T01:55:06;7.80;99.90
19168;DHT22;9716;53.114;18.040;2023-12-20T01:57:41;7.80;99.90
19168;DHT22;9716;53.114;18.040;2023-12-20T02:00:12;7.80;99.90
19168;DHT22;9716;53.114;18.040;2023-12-20T02:02:43;7.80;99.90
19168;DHT22;9716;53.114;18.040;2023-12-20T02:05:13;7.80;99.90
19168;DHT22;9716;53.114;18.040;2023-12-20T02:07:41;7.80;99.90
19168;DHT22;9716;53.114;18.040;2023-12-20T02:10:11;7.80;99.90
19168;DHT22;9716;53.114;18.040;2023-12-20T02:12:40;7.80;99.90
19168;DHT22;9716;53.114;18.040;2023-12-20T02:15:09;7.80;99.90
19168;DHT22;9716;53.114;18.040;2023-12-20T02:17:45;7.80;99.90
19168;DHT22;9716;53.114;18.040;2023-12-20T02:20:15;7.80;99.90
19168;DHT22;9716;53.114;18.040;2023-12-20T02:22:45;7.80;99.90
19168;DHT22;9716;53.114;18.040;2023-12-20T02:25:13;7.80;99.90
19168;DHT22;9716;53.114;18.040;2023-12-20T02:27:42;7.80;99.90
19168;DHT22;9716;53.114;18.040;2023-12-20T02:30:11;7.80;99.90
19168;DHT22;9716;53.114;18.040;2023-12-20T02:32:39;7.80;99.90
19168;DHT22;9716;53.114;18.040;2023-12-20T02:35:08;7.80;99.90
19168;DHT22;9716;53.114;18.040;2023-12-20T02:37:36;7.90;99.90
19168;DHT22;9716;53.114;18.040;2023-12-20T02:40:09;7.90;99.90
19168;DHT22;9716;53.114;18.040;2023-12-20T02:42:38;7.80;99.90
19168;DHT22;9716;53.114;18.040;2023-12-20T02:45:07;7.80;99.90
19168;DHT22;9716;53.114;18.040;2023-12-20T02:47:36;7.80;99.90
19168;DHT22;9716;53.114;18.040;2023-12-20T02:50:05;7.80;99.90
19168;DHT22;9716;53.114;18.040;2023-12-20T02:52:34;7.80;99.90
19168;DHT22;9716;53.114;18.040;2023-12-20T02:55:10;7.80;99.90
19168;DHT22;9716;53.114;18.040;2023-12-20T02:57:38;7.90;99.90
19168;DHT22;9716;53.114;18.040;2023-12-20T03:00:10;7.80;99.90
19168;DHT22;9716;53.114;18.040;2023-12-20T03:02:59;7.80;99.90
19168;DHT22;9716;53.114;18.040;2023-12-20T03:05:31;7.90;99.90
19168;DHT22;9716;53.114;18.040;2023-12-20T03:07:59;7.80;99.90
19168;DHT22;9716;53.114;18.040;2023-12-20T03:10:29;7.90;99.90
19168;DHT22;9716;53.114;18.040;2023-12-20T03:12:57;7.80;99.90
19168;DHT22;9716;53.114;18.040;2023-12-20T03:15:26;7.80;99.90
19168;DHT22;9716;53.114;18.040;2023-12-20T03:17:54;7.80;99.90
19168;DHT22;9716;53.114;18.040;2023-12-20T03:20:23;7.80;99.90
19168;DHT22;9716;53.114;18.040;2023-12-20T03:22:52;7.80;99.90
19168;DHT22;9716;53.114;18.040;2023-12-20T03:25:21;7.80;99.90
19168;DHT22;9716;53.114;18.040;2023-12-20T03:27:51;7.80;99.90
19168;DHT22;9716;53.114;18.040;2023-12-20T03:30:20;7.80;99.90
19168;DHT22;9716;53.114;18.040;2023-12-20T03:32:48;7.80;99.90
19168;DHT22;9716;53.114;18.040;2023-12-20T03:35:17;7.80;99.90
19168;DHT22;9716;53.114;18.040;2023-12-20T03:37:45;7.80;99.90
19168;DHT22;9716;53.114;18.040;2023-12-20T03:40:17;7.80;99.90
19168;DHT22;9716;53.114;18.040;2023-12-20T03:42:45;7.80;99.90
19168;DHT22;9716;53.114;18.040;2023-12-20T03:45:15;7.80;99.90
19168;DHT22;9716;53.114;18.040;2023-12-20T03:47:43;7.80;99.90
19168;DHT22;9716;53.114;18.040;2023-12-20T03:50:12;7.80;99.90
19168;DHT22;9716;53.114;18.040;2023-12-20T03:52:41;7.80;99.90
19168;DHT22;9716;53.114;18.040;2023-12-20T03:55:09;7.80;99.90
19168;DHT22;9716;53.114;18.040;2023-12-20T03:57:38;7.80;99.90
19168;DHT22;9716;53.114;18.040;2023-12-20T04:00:08;7.80;99.90
19168;DHT22;9716;53.114;18.040;2023-12-20T04:02:39;7.80;99.90
19168;DHT22;9716;53.114;18.040;2023-12-20T04:05:09;7.80;99.90
19168;DHT22;9716;53.114;18.040;2023-12-20T04:07:38;7.80;99.90
19168;DHT22;9716;53.114;18.040;2023-12-20T04:10:07;7.80;99.90
19168;DHT22;9716;53.114;18.040;2023-12-20T04:12:36;7.80;99.90
19168;DHT22;9716;53.114;18.040;2023-12-20T04:15:05;7.80;99.90
19168;DHT22;9716;53.114;18.040;2023-12-20T04:17:38;7.80;99.90
19168;DHT22;9716;53.114;18.040;2023-12-20T04:20:07;7.70;99.90
19168;DHT22;9716;53.114;18.040;2023-12-20T04:22:36;7.80;99.90
19168;DHT22;9716;53.114;18.040;2023-12-20T04:25:05;7.80;99.90
19168;DHT22;9716;53.114;18.040;2023-12-20T04:27:34;7.70;99.90
19168;DHT22;9716;53.114;18.040;2023-12-20T04:30:02;7.70;99.90
19168;DHT22;9716;53.114;18.040;2023-12-20T04:32:31;7.70;99.90
19168;DHT22;9716;53.114;18.040;2023-12-20T04:35:01;7.70;99.90
19168;DHT22;9716;53.114;18.040;2023-12-20T04:37:29;7.60;99.90
19168;DHT22;9716;53.114;18.040;2023-12-20T04:39:58;7.60;99.90
19168;DHT22;9716;53.114;18.040;2023-12-20T04:42:26;7.60;99.90
19168;DHT22;9716;53.114;18.040;2023-12-20T04:44:55;7.60;99.90
19168;DHT22;9716;53.114;18.040;2023-12-20T04:47:23;7.60;99.90
19168;DHT22;9716;53.114;18.040;2023-12-20T04:49:52;7.60;99.90
19168;DHT22;9716;53.114;18.040;2023-12-20T04:52:22;7.60;99.90
19168;DHT22;9716;53.114;18.040;2023-12-20T04:54:53;7.60;99.90
19168;DHT22;9716;53.114;18.040;2023-12-20T04:57:31;7.60;99.90
19168;DHT22;9716;53.114;18.040;2023-12-20T05:00:00;7.60;99.90
19168;DHT22;9716;53.114;18.040;2023-12-20T05:02:30;7.60;99.90
19168;DHT22;9716;53.114;18.040;2023-12-20T05:04:58;7.50;99.90
19168;DHT22;9716;53.114;18.040;2023-12-20T05:07:29;7.50;99.90
19168;DHT22;9716;53.114;18.040;2023-12-20T05:09:57;7.50;99.90
19168;DHT22;9716;53.114;18.040;2023-12-20T05:12:26;7.50;99.90
19168;DHT22;9716;53.114;18.040;2023-12-20T05:14:54;7.50;99.90
19168;DHT22;9716;53.114;18.040;2023-12-20T05:17:26;7.50;99.90
19168;DHT22;9716;53.114;18.040;2023-12-20T05:19:55;7.50;99.90
19168;DHT22;9716;53.114;18.040;2023-12-20T05:22:23;7.50;99.90
19168;DHT22;9716;53.114;18.040;2023-12-20T05:24:53;7.50;99.90
19168;DHT22;9716;53.114;18.040;2023-12-20T05:27:22;7.50;99.90
19168;DHT22;9716;53.114;18.040;2023-12-20T05:29:50;7.40;99.90
19168;DHT22;9716;53.114;18.040;2023-12-20T05:32:19;7.40;99.90
19168;DHT22;9716;53.114;18.040;2023-12-20T05:34:47;7.30;99.90
19168;DHT22;9716;53.114;18.040;2023-12-20T05:37:15;7.30;99.90
19168;DHT22;9716;53.114;18.040;2023-12-20T05:39:44;7.30;99.90
19168;DHT22;9716;53.114;18.040;2023-12-20T05:42:14;7.30;99.90
19168;DHT22;9716;53.114;18.040;2023-12-20T05:44:42;7.20;99.90
19168;DHT22;9716;53.114;18.040;2023-12-20T05:47:11;7.20;99.90
19168;DHT22;9716;53.114;18.040;2023-12-20T05:49:39;7.20;99.90
19168;DHT22;9716;53.114;18.040;2023-12-20T05:52:08;7.20;99.90
19168;DHT22;9716;53.114;18.040;2023-12-20T05:54:37;7.20;99.90
19168;DHT22;9716;53.114;18.040;2023-12-20T05:57:05;7.10;99.90
19168;DHT22;9716;53.114;18.040;2023-12-20T05:59:35;7.10;99.90
19168;DHT22;9716;53.114;18.040;2023-12-20T06:02:04;7.00;99.90
19168;DHT22;9716;53.114;18.040;2023-12-20T06:04:32;6.90;99.90
19168;DHT22;9716;53.114;18.040;2023-12-20T06:07:02;6.90;99.90
19168;DHT22;9716;53.114;18.040;2023-12-20T06:09:30;6.80;99.90
19168;DHT22;9716;53.114;18.040;2023-12-20T06:11:59;6.80;99.90
19168;DHT22;9716;53.114;18.040;2023-12-20T06:14:27;6.70;99.90
19168;DHT22;9716;53.114;18.040;2023-12-20T06:16:59;6.60;99.90
19168;DHT22;9716;53.114;18.040;2023-12-20T06:19:28;6.50;99.90
19168;DHT22;9716;53.114;18.040;2023-12-20T06:21:56;6.50;99.90
19168;DHT22;9716;53.114;18.040;2023-12-20T06:24:25;6.40;99.90
19168;DHT22;9716;53.114;18.040;2023-12-20T06:26:55;6.40;99.90
19168;DHT22;9716;53.114;18.040;2023-12-20T06:29:23;6.40;99.90
19168;DHT22;9716;53.114;18.040;2023-12-20T06:31:52;6.30;99.90
19168;DHT22;9716;53.114;18.040;2023-12-20T06:34:22;6.30;99.90
19168;DHT22;9716;53.114;18.040;2023-12-20T06:36:51;6.20;99.90
19168;DHT22;9716;53.114;18.040;2023-12-20T06:39:19;6.20;99.90
19168;DHT22;9716;53.114;18.040;2023-12-20T06:41:48;6.20;99.90
19168;DHT22;9716;53.114;18.040;2023-12-20T06:44:16;6.20;99.90
19168;DHT22;9716;53.114;18.040;2023-12-20T06:46:45;6.20;99.90
19168;DHT22;9716;53.114;18.040;2023-12-20T06:49:13;6.10;99.90
19168;DHT22;9716;53.114;18.040;2023-12-20T06:51:43;6.10;99.90
19168;DHT22;9716;53.114;18.040;2023-12-20T06:54:11;6.10;99.90
19168;DHT22;9716;53.114;18.040;2023-12-20T06:56:40;6.00;99.90
19168;DHT22;9716;53.114;18.040;2023-12-20T06:59:09;6.00;99.90
19168;DHT22;9716;53.114;18.040;2023-12-20T07:01:37;6.00;99.90
19168;DHT22;9716;53.114;18.040;2023-12-20T07:04:06;6.00;99.90
19168;DHT22;9716;53.114;18.040;2023-12-20T07:06:35;5.90;99.90
19168;DHT22;9716;53.114;18.040;2023-12-20T07:09:05;5.90;99.90
19168;DHT22;9716;53.114;18.040;2023-12-20T07:11:33;5.90;99.90
19168;DHT22;9716;53.114;18.040;2023-12-20T07:14:02;5.90;99.90
19168;DHT22;9716;53.114;18.040;2023-12-20T07:16:30;5.90;99.90
19168;DHT22;9716;53.114;18.040;2023-12-20T07:18:59;5.90;99.90
19168;DHT22;9716;53.114;18.040;2023-12-20T07:21:27;5.90;99.90
19168;DHT22;9716;53.114;18.040;2023-12-20T07:23:56;5.90;99.90
19168;DHT22;9716;53.114;18.040;2023-12-20T07:26:26;5.80;99.90
19168;DHT22;9716;53.114;18.040;2023-12-20T07:28:54;5.80;99.90
19168;DHT22;9716;53.114;18.040;2023-12-20T07:31:26;5.80;99.90
19168;DHT22;9716;53.114;18.040;2023-12-20T07:33:54;5.80;99.90
19168;DHT22;9716;53.114;18.040;2023-12-20T07:36:23;5.70;99.90
19168;DHT22;9716;53.114;18.040;2023-12-20T07:38:51;5.70;99.90
19168;DHT22;9716;53.114;18.040;2023-12-20T07:41:20;5.70;99.90
19168;DHT22;9716;53.114;18.040;2023-12-20T07:43:50;5.70;99.90
19168;DHT22;9716;53.114;18.040;2023-12-20T07:46:21;5.70;99.90
19168;DHT22;9716;53.114;18.040;2023-12-20T07:48:51;5.70;99.90
19168;DHT22;9716;53.114;18.040;2023-12-20T07:51:19;5.70;99.90
19168;DHT22;9716;53.114;18.040;2023-12-20T07:53:48;5.80;99.90
19168;DHT22;9716;53.114;18.040;2023-12-20T07:56:19;5.80;99.90
19168;DHT22;9716;53.114;18.040;2023-12-20T07:58:49;5.80;99.90
19168;DHT22;9716;53.114;18.040;2023-12-20T08:01:20;5.80;99.90
19168;DHT22;9716;53.114;18.040;2023-12-20T08:03:50;5.80;99.90
19168;DHT22;9716;53.114;18.040;2023-12-20T08:06:19;5.80;99.90
19168;DHT22;9716;53.114;18.040;2023-12-20T08:08:48;5.80;99.90
19168;DHT22;9716;53.114;18.040;2023-12-20T08:11:28;5.80;99.90
19168;DHT22;9716;53.114;18.040;2023-12-20T08:13:58;5.90;99.90
19168;DHT22;9716;53.114;18.040;2023-12-20T08:16:28;5.90;99.90
19168;DHT22;9716;53.114;18.040;2023-12-20T08:18:56;6.00;99.90
19168;DHT22;9716;53.114;18.040;2023-12-20T08:21:25;5.90;99.90
19168;DHT22;9716;53.114;18.040;2023-12-20T08:23:53;6.00;99.90
19168;DHT22;9716;53.114;18.040;2023-12-20T08:26:22;6.00;99.90
19168;DHT22;9716;53.114;18.040;2023-12-20T08:28:51;6.00;99.90
19168;DHT22;9716;53.114;18.040;2023-12-20T08:31:24;6.00;99.90
19168;DHT22;9716;53.114;18.040;2023-12-20T08:33:53;6.00;99.90
19168;DHT22;9716;53.114;18.040;2023-12-20T08:36:25;6.10;99.90
19168;DHT22;9716;53.114;18.040;2023-12-20T08:38:55;6.10;99.90
19168;DHT22;9716;53.114;18.040;2023-12-20T08:41:26;6.20;99.90
19168;DHT22;9716;53.114;18.040;2023-12-20T08:43:55;6.30;99.90
19168;DHT22;9716;53.114;18.040;2023-12-20T08:46:25;6.40;99.90
19168;DHT22;9716;53.114;18.040;2023-12-20T08:48:53;6.40;99.90
19168;DHT22;9716;53.114;18.040;2023-12-20T08:51:22;6.40;99.90
19168;DHT22;9716;53.114;18.040;2023-12-20T08:53:52;6.40;99.90
19168;DHT22;9716;53.114;18.040;2023-12-20T08:56:21;6.50;99.90
19168;DHT22;9716;53.114;18.040;2023-12-20T08:58:52;6.50;99.90
19168;DHT22;9716;53.114;18.040;2023-12-20T09:01:20;6.50;99.90
19168;DHT22;9716;53.114;18.040;2023-12-20T09:03:50;6.60;99.90
19168;DHT22;9716;53.114;18.040;2023-12-20T09:06:19;6.50;99.90
19168;DHT22;9716;53.114;18.040;2023-12-20T09:08:47;6.60;99.90
19168;DHT22;9716;53.114;18.040;2023-12-20T09:11:16;6.60;99.90
19168;DHT22;9716;53.114;18.040;2023-12-20T09:13:45;6.60;99.90
19168;DHT22;9716;53.114;18.040;2023-12-20T09:16:13;6.70;99.90
19168;DHT22;9716;53.114;18.040;2023-12-20T09:18:43;6.70;99.90
19168;DHT22;9716;53.114;18.040;2023-12-20T09:21:13;6.80;99.90
19168;DHT22;9716;53.114;18.040;2023-12-20T09:23:41;6.90;99.90
19168;DHT22;9716;53.114;18.040;2023-12-20T09:26:13;7.00;99.90
19168;DHT22;9716;53.114;18.040;2023-12-20T09:28:41;7.10;99.90
19168;DHT22;9716;53.114;18.040;2023-12-20T09:31:10;7.20;99.90
19168;DHT22;9716;53.114;18.040;2023-12-20T09:33:38;7.30;99.90
19168;DHT22;9716;53.114;18.040;2023-12-20T09:36:07;7.40;99.90
19168;DHT22;9716;53.114;18.040;2023-12-20T09:38:37;7.50;99.90
19168;DHT22;9716;53.114;18.040;2023-12-20T09:41:05;7.60;99.90
19168;DHT22;9716;53.114;18.040;2023-12-20T09:43:37;7.70;99.90
19168;DHT22;9716;53.114;18.040;2023-12-20T09:46:06;7.80;99.90
19168;DHT22;9716;53.114;18.040;2023-12-20T09:48:36;7.80;99.90
19168;DHT22;9716;53.114;18.040;2023-12-20T09:51:05;7.90;99.90
19168;DHT22;9716;53.114;18.040;2023-12-20T09:53:38;7.90;99.90
19168;DHT22;9716;53.114;18.040;2023-12-20T09:56:08;8.00;99.90
19168;DHT22;9716;53.114;18.040;2023-12-20T09:58:37;7.90;99.90
19168;DHT22;9716;53.114;18.040;2023-12-20T10:01:07;7.80;99.90
19168;DHT22;9716;53.114;18.040;2023-12-20T10:03:38;7.90;99.90
19168;DHT22;9716;53.114;18.040;2023-12-20T10:06:08;7.80;99.90
19168;DHT22;9716;53.114;18.040;2023-12-20T10:08:39;7.80;99.90
19168;DHT22;9716;53.114;18.040;2023-12-20T10:11:08;7.80;99.90
19168;DHT22;9716;53.114;18.040;2023-12-20T10:13:39;7.90;99.90
19168;DHT22;9716;53.114;18.040;2023-12-20T10:16:08;8.00;99.90
19168;DHT22;9716;53.114;18.040;2023-12-20T10:18:37;8.10;99.90
19168;DHT22;9716;53.114;18.040;2023-12-20T10:21:06;8.20;99.90
19168;DHT22;9716;53.114;18.040;2023-12-20T10:23:39;8.40;99.90
19168;DHT22;9716;53.114;18.040;2023-12-20T10:26:08;8.60;99.90
19168;DHT22;9716;53.114;18.040;2023-12-20T10:28:39;8.70;99.90
19168;DHT22;9716;53.114;18.040;2023-12-20T10:31:07;8.80;99.90
19168;DHT22;9716;53.114;18.040;2023-12-20T10:33:36;8.90;99.90
19168;DHT22;9716;53.114;18.040;2023-12-20T10:36:06;8.90;99.90
19168;DHT22;9716;53.114;18.040;2023-12-20T10:38:35;9.00;99.90
19168;DHT22;9716;53.114;18.040;2023-12-20T10:41:09;9.00;99.90
19168;DHT22;9716;53.114;18.040;2023-12-20T10:43:38;8.90;99.90
19168;DHT22;9716;53.114;18.040;2023-12-20T10:46:09;8.90;99.90
19168;DHT22;9716;53.114;18.040;2023-12-20T10:48:39;8.90;99.90
19168;DHT22;9716;53.114;18.040;2023-12-20T10:51:09;8.80;99.90
19168;DHT22;9716;53.114;18.040;2023-12-20T10:53:39;8.80;99.90
19168;DHT22;9716;53.114;18.040;2023-12-20T10:56:12;8.80;99.90
19168;DHT22;9716;53.114;18.040;2023-12-20T10:58:42;8.70;99.90
19168;DHT22;9716;53.114;18.040;2023-12-20T11:01:13;8.70;99.90
19168;DHT22;9716;53.114;18.040;2023-12-20T11:03:44;8.60;99.90
19168;DHT22;9716;53.114;18.040;2023-12-20T11:06:22;8.60;99.90
19168;DHT22;9716;53.114;18.040;2023-12-20T11:08:59;8.50;99.90
19168;DHT22;9716;53.114;18.040;2023-12-20T11:11:46;8.40;99.90
19168;DHT22;9716;53.114;18.040;2023-12-20T11:14:22;8.40;99.90
19168;DHT22;9716;53.114;18.040;2023-12-20T11:17:05;8.30;99.90
19168;DHT22;9716;53.114;18.040;2023-12-20T11:19:36;8.20;99.90
19168;DHT22;9716;53.114;18.040;2023-12-20T11:22:05;8.10;99.90
19168;DHT22;9716;53.114;18.040;2023-12-20T11:24:34;8.10;99.90
19168;DHT22;9716;53.114;18.040;2023-12-20T11:27:06;8.00;99.90
19168;DHT22;9716;53.114;18.040;2023-12-20T11:29:35;7.90;99.90
19168;DHT22;9716;53.114;18.040;2023-12-20T11:32:29;7.80;99.90
19168;DHT22;9716;53.114;18.040;2023-12-20T11:34:59;7.80;99.90
19168;DHT22;9716;53.114;18.040;2023-12-20T11:37:29;7.80;99.90
19168;DHT22;9716;53.114;18.040;2023-12-20T11:40:02;7.70;99.90
19168;DHT22;9716;53.114;18.040;2023-12-20T11:42:38;7.80;99.90
19168;DHT22;9716;53.114;18.040;2023-12-20T11:45:10;7.70;99.90
19168;DHT22;9716;53.114;18.040;2023-12-20T11:47:43;7.70;99.90
19168;DHT22;9716;53.114;18.040;2023-12-20T11:50:14;7.70;99.90
19168;DHT22;9716;53.114;18.040;2023-12-20T11:52:43;7.70;99.90
19168;DHT22;9716;53.114;18.040;2023-12-20T11:55:12;7.70;99.90
19168;DHT22;9716;53.114;18.040;2023-12-20T11:57:44;7.70;99.90
19168;DHT22;9716;53.114;18.040;2023-12-20T12:00:14;7.70;99.90
19168;DHT22;9716;53.114;18.040;2023-12-20T12:02:43;7.60;99.90
19168;DHT22;9716;53.114;18.040;2023-12-20T12:05:22;7.60;99.90
19168;DHT22;9716;53.114;18.040;2023-12-20T12:07:51;7.60;99.90
19168;DHT22;9716;53.114;18.040;2023-12-20T12:10:20;7.60;99.90
19168;DHT22;9716;53.114;18.040;2023-12-20T12:12:50;7.70;99.90
19168;DHT22;9716;53.114;18.040;2023-12-20T12:15:20;7.60;99.90
19168;DHT22;9716;53.114;18.040;2023-12-20T12:17:53;7.60;99.90
19168;DHT22;9716;53.114;18.040;2023-12-20T12:20:22;7.50;99.90
19168;DHT22;9716;53.114;18.040;2023-12-20T12:22:58;7.50;99.90
19168;DHT22;9716;53.114;18.040;2023-12-20T12:25:28;7.50;99.90
19168;DHT22;9716;53.114;18.040;2023-12-20T12:27:59;7.50;99.90
19168;DHT22;9716;53.114;18.040;2023-12-20T12:30:28;7.50;99.90
19168;DHT22;9716;53.114;18.040;2023-12-20T12:33:05;7.50;99.90
19168;DHT22;9716;53.114;18.040;2023-12-20T12:35:34;7.50;99.90
19168;DHT22;9716;53.114;18.040;2023-12-20T12:38:03;7.50;99.90
19168;DHT22;9716;53.114;18.040;2023-12-20T12:40:34;7.50;99.90
19168;DHT22;9716;53.114;18.040;2023-12-20T12:43:05;7.50;99.90
19168;DHT22;9716;53.114;18.040;2023-12-20T12:45:34;7.50;99.90
19168;DHT22;9716;53.114;18.040;2023-12-20T12:48:04;7.50;99.90
19168;DHT22;9716;53.114;18.040;2023-12-20T12:50:32;7.40;99.90
19168;DHT22;9716;53.114;18.040;2023-12-20T12:53:01;7.40;99.90
19168;DHT22;9716;53.114;18.040;2023-12-20T12:55:30;7.40;99.90
19168;DHT22;9716;53.114;18.040;2023-12-20T12:57:59;7.40;99.90
19168;DHT22;9716;53.114;18.040;2023-12-20T13:00:29;7.30;99.90
19168;DHT22;9716;53.114;18.040;2023-12-20T13:02:58;7.30;99.90
19168;DHT22;9716;53.114;18.040;2023-12-20T13:05:29;7.30;99.90
19168;DHT22;9716;53.114;18.040;2023-12-20T13:08:05;7.20;99.90
19168;DHT22;9716;53.114;18.040;2023-12-20T13:10:34;7.20;99.90
19168;DHT22;9716;53.114;18.040;2023-12-20T13:13:03;7.20;99.90
19168;DHT22;9716;53.114;18.040;2023-12-20T13:15:33;7.20;99.90
19168;DHT22;9716;53.114;18.040;2023-12-20T13:18:02;7.20;99.90
19168;DHT22;9716;53.114;18.040;2023-12-20T13:20:32;7.20;99.90
19168;DHT22;9716;53.114;18.040;2023-12-20T13:23:00;7.10;99.90
19168;DHT22;9716;53.114;18.040;2023-12-20T13:25:30;7.10;99.90
19168;DHT22;9716;53.114;18.040;2023-12-20T13:28:01;7.10;99.90
19168;DHT22;9716;53.114;18.040;2023-12-20T13:30:35;7.10;99.90
19168;DHT22;9716;53.114;18.040;2023-12-20T13:33:04;7.00;99.90
19168;DHT22;9716;53.114;18.040;2023-12-20T13:35:34;7.00;99.90
19168;DHT22;9716;53.114;18.040;2023-12-20T13:38:03;7.00;99.90
19168;DHT22;9716;53.114;18.040;2023-12-20T13:40:32;7.00;99.90
19168;DHT22;9716;53.114;18.040;2023-12-20T13:43:01;7.00;99.90
19168;DHT22;9716;53.114;18.040;2023-12-20T13:45:30;7.00;99.90
19168;DHT22;9716;53.114;18.040;2023-12-20T13:48:00;7.00;99.90
19168;DHT22;9716;53.114;18.040;2023-12-20T13:50:29;7.00;99.90
19168;DHT22;9716;53.114;18.040;2023-12-20T13:52:58;7.00;99.90
19168;DHT22;9716;53.114;18.040;2023-12-20T13:55:27;6.90;99.90
19168;DHT22;9716;53.114;18.040;2023-12-20T13:57:56;7.00;99.90
19168;DHT22;9716;53.114;18.040;2023-12-20T14:00:25;6.90;99.90
19168;DHT22;9716;53.114;18.040;2023-12-20T14:02:54;6.90;99.90
19168;DHT22;9716;53.114;18.040;2023-12-20T14:05:25;6.90;99.90
19168;DHT22;9716;53.114;18.040;2023-12-20T14:07:56;6.90;99.90
19168;DHT22;9716;53.114;18.040;2023-12-20T14:10:26;6.90;99.90
19168;DHT22;9716;53.114;18.040;2023-12-20T14:13:07;6.90;99.90
19168;DHT22;9716;53.114;18.040;2023-12-20T14:15:35;6.90;99.90
19168;DHT22;9716;53.114;18.040;2023-12-20T14:18:05;6.90;99.90
19168;DHT22;9716;53.114;18.040;2023-12-20T14:20:36;6.90;99.90
19168;DHT22;9716;53.114;18.040;2023-12-20T14:23:06;6.90;99.90
19168;DHT22;9716;53.114;18.040;2023-12-20T14:25:36;6.90;99.90
19168;DHT22;9716;53.114;18.040;2023-12-20T14:28:18;6.80;99.90
19168;DHT22;9716;53.114;18.040;2023-12-20T14:30:47;6.80;99.90
19168;DHT22;9716;53.114;18.040;2023-12-20T14:33:17;6.80;99.90
19168;DHT22;9716;53.114;18.040;2023-12-20T14:35:48;6.80;99.90
19168;DHT22;9716;53.114;18.040;2023-12-20T14:38:17;6.80;99.90
19168;DHT22;9716;53.114;18.040;2023-12-20T14:40:46;6.80;99.90
19168;DHT22;9716;53.114;18.040;2023-12-20T14:43:15;6.80;99.90
19168;DHT22;9716;53.114;18.040;2023-12-20T14:45:44;6.80;99.90
19168;DHT22;9716;53.114;18.040;2023-12-20T14:48:13;6.80;99.90
19168;DHT22;9716;53.114;18.040;2023-12-20T14:50:41;6.90;99.90
19168;DHT22;9716;53.114;18.040;2023-12-20T14:53:11;6.90;99.90
19168;DHT22;9716;53.114;18.040;2023-12-20T14:55:39;7.00;99.90
19168;DHT22;9716;53.114;18.040;2023-12-20T14:58:08;7.00;99.90
19168;DHT22;9716;53.114;18.040;2023-12-20T15:00:36;7.10;99.90
19168;DHT22;9716;53.114;18.040;2023-12-20T15:03:05;7.20;99.90
19168;DHT22;9716;53.114;18.040;2023-12-20T15:05:34;7.30;99.90
19168;DHT22;9716;53.114;18.040;2023-12-20T15:08:03;7.50;99.90
19168;DHT22;9716;53.114;18.040;2023-12-20T15:10:33;7.60;99.90
19168;DHT22;9716;53.114;18.040;2023-12-20T15:13:02;7.60;99.90
19168;DHT22;9716;53.114;18.040;2023-12-20T15:15:30;7.70;99.90
19168;DHT22;9716;53.114;18.040;2023-12-20T15:18:00;7.80;99.90
19168;DHT22;9716;53.114;18.040;2023-12-20T15:20:30;7.90;99.90
19168;DHT22;9716;53.114;18.040;2023-12-20T15:23:01;7.90;99.90
19168;DHT22;9716;53.114;18.040;2023-12-20T15:25:35;8.00;99.90
19168;DHT22;9716;53.114;18.040;2023-12-20T15:28:04;8.00;99.90
19168;DHT22;9716;53.114;18.040;2023-12-20T15:30:32;8.00;99.90
19168;DHT22;9716;53.114;18.040;2023-12-20T15:33:02;8.00;99.90
19168;DHT22;9716;53.114;18.040;2023-12-20T15:35:34;8.00;99.90
19168;DHT22;9716;53.114;18.040;2023-12-20T15:38:02;8.00;99.90
19168;DHT22;9716;53.114;18.040;2023-12-20T15:40:32;7.90;99.90
19168;DHT22;9716;53.114;18.040;2023-12-20T15:43:02;7.90;99.90
19168;DHT22;9716;53.114;18.040;2023-12-20T15:45:30;7.90;99.90
19168;DHT22;9716;53.114;18.040;2023-12-20T15:47:59;7.90;99.90
19168;DHT22;9716;53.114;18.040;2023-12-20T15:50:27;7.90;99.90
19168;DHT22;9716;53.114;18.040;2023-12-20T15:52:56;7.80;99.90
19168;DHT22;9716;53.114;18.040;2023-12-20T15:55:24;7.80;99.90
19168;DHT22;9716;53.114;18.040;2023-12-20T15:57:53;7.80;99.90
19168;DHT22;9716;53.114;18.040;2023-12-20T16:00:23;7.70;99.90